Saint Marie, Montana
Current Conditions -  °F | °C
As of 9:53 AM on Tuesday 27 Jan 2015 (Local Time) from KGGW Reporting Station
Clear Clear  
Wind Chill:   Ceiling: Unl
Heat Index:   Visibility: 10mi
Dew Point: -1°   Wind: 3mph
Humidity: 79%   Direction: 150°SSE
Pressure: 29.86"   Gusts: NA
Location:  48.4°N, 106.55°W
Report Text: KGGW 271653Z AUTO 15003KT 10SM CLR 03/M01 A2986 RMK AO2 SLP133 T00281006
Loading
Personal Weather Stations






























Interactive Weather Map New forecast layout! Learn more

10-Day Weather Forecast

Advertisements
Track Severe Weather on mobile